createdAt,value
2023-03-18T00:02:42.342Z,3.80
2023-03-18T00:08:04.704Z,3.97
2023-03-18T00:13:26.096Z,7.15
2023-03-18T00:18:47.209Z,6.15
2023-03-18T00:24:08.280Z,5.45
2023-03-18T00:29:29.037Z,6.15
2023-03-18T00:34:50.726Z,18.58
2023-03-18T00:40:17.374Z,16.58
2023-03-18T00:45:40.459Z,12.63
2023-03-18T00:51:01.188Z,11.23
2023-03-18T00:56:24.309Z,6.80
2023-03-18T01:01:45.338Z,6.38
2023-03-18T01:07:06.154Z,4.65
2023-03-18T01:12:26.746Z,4.90
2023-03-18T01:17:48.327Z,5.43
2023-03-18T01:23:09.844Z,5.15
2023-03-18T01:28:32.604Z,3.92
2023-03-18T01:33:54.574Z,3.90
2023-03-18T01:39:17.568Z,4.57
2023-03-18T01:44:38.633Z,4.32
2023-03-18T01:49:59.936Z,3.95
2023-03-18T01:55:26.560Z,4.05
2023-03-18T02:00:58.984Z,3.45
2023-03-18T02:06:20.330Z,3.63
2023-03-18T02:11:50.216Z,3.38
2023-03-18T02:17:18.045Z,3.85
2023-03-18T02:22:44.569Z,4.40
2023-03-18T02:28:13.488Z,4.35
2023-03-18T02:33:42.760Z,3.97
2023-03-18T02:39:04.342Z,3.33
2023-03-18T02:44:26.125Z,3.35
2023-03-18T02:50:05.565Z,4.13
2023-03-18T02:55:27.778Z,4.03
2023-03-18T03:00:48.677Z,2.92
2023-03-18T03:06:11.202Z,4.40
2023-03-18T03:11:33.121Z,3.08
2023-03-18T03:17:02.700Z,3.45
2023-03-18T03:22:23.728Z,3.45
2023-03-18T03:27:44.458Z,3.60
2023-03-18T03:33:05.895Z,3.53
2023-03-18T03:38:27.589Z,3.80
2023-03-18T03:43:49.758Z,3.47
2023-03-18T03:49:10.472Z,3.15
2023-03-18T03:54:31.553Z,3.28
2023-03-18T03:59:53.976Z,3.30
2023-03-18T04:05:34.703Z,3.20
2023-03-18T04:10:55.814Z,3.30
2023-03-18T04:16:17.254Z,3.67
2023-03-18T04:21:38.862Z,3.53
2023-03-18T04:26:59.724Z,2.97
2023-03-18T04:32:21.084Z,3.63
2023-03-18T04:37:42.309Z,3.63
2023-03-18T04:43:03.097Z,3.13
2023-03-18T04:48:24.286Z,3.38
2023-03-18T04:53:48.576Z,3.70
2023-03-18T04:59:10.486Z,4.03
2023-03-18T05:04:31.785Z,3.65
2023-03-18T05:09:53.473Z,3.78
2023-03-18T05:15:14.411Z,4.10
2023-03-18T05:20:43.181Z,4.15
2023-03-18T05:26:07.552Z,4.55
2023-03-18T05:31:29.790Z,4.30
2023-03-18T05:36:52.197Z,4.35
2023-03-18T05:42:14.245Z,4.50
2023-03-18T05:47:37.156Z,4.85
2023-03-18T05:53:09.411Z,5.22
2023-03-18T05:58:33.252Z,5.65
2023-03-18T06:04:11.500Z,5.03
2023-03-18T06:09:34.236Z,4.05
2023-03-18T06:14:56.248Z,7.57
2023-03-18T06:20:19.646Z,5.88
2023-03-18T06:25:41.335Z,8.60
2023-03-18T06:31:02.833Z,5.75
2023-03-18T06:36:23.861Z,3.63
2023-03-18T06:41:46.625Z,4.03
2023-03-18T06:47:33.589Z,3.63
2023-03-18T06:52:54.686Z,4.55
2023-03-18T06:58:21.965Z,4.10
2023-03-18T07:04:03.516Z,4.75
2023-03-18T07:09:24.691Z,5.90
2023-03-18T07:14:48.613Z,4.00
2023-03-18T07:20:12.719Z,2.47
2023-03-18T07:25:35.083Z,2.88
2023-03-18T07:30:56.580Z,3.08
2023-03-18T07:36:17.747Z,3.20
2023-03-18T07:41:38.550Z,2.97
2023-03-18T07:46:59.550Z,3.17
2023-03-18T07:52:20.700Z,2.90
2023-03-18T07:57:41.901Z,2.55
2023-03-18T08:03:03.984Z,2.90
2023-03-18T08:08:25.003Z,3.38
2023-03-18T08:13:45.743Z,3.38
2023-03-18T08:19:06.543Z,2.80
2023-03-18T08:24:27.461Z,3.08
2023-03-18T08:29:48.405Z,3.08
2023-03-18T08:35:09.985Z,3.83
2023-03-18T08:40:30.803Z,3.33
2023-03-18T08:45:55.460Z,3.63
2023-03-18T08:51:16.959Z,3.50
2023-03-18T08:56:38.260Z,4.25
2023-03-18T09:01:59.206Z,3.30
2023-03-18T09:07:20.091Z,2.88
2023-03-18T09:12:42.370Z,3.50
2023-03-18T09:18:11.993Z,3.90
2023-03-18T09:23:34.438Z,4.03
2023-03-18T09:28:55.382Z,3.95
2023-03-18T09:34:16.006Z,4.03
2023-03-18T09:39:37.465Z,4.40
2023-03-18T09:45:06.582Z,4.18
2023-03-18T09:51:01.289Z,3.53
2023-03-18T09:56:34.894Z,4.70
2023-03-18T10:01:57.416Z,3.80
2023-03-18T10:07:22.216Z,3.60
2023-03-18T10:12:48.648Z,3.83
2023-03-18T10:18:22.203Z,5.75
2023-03-18T10:23:43.037Z,4.43
2023-03-18T10:29:04.030Z,3.28
2023-03-18T10:34:33.894Z,4.78
2023-03-18T10:51:08.232Z,4.10
2023-03-18T10:56:29.373Z,3.80
2023-03-18T11:02:17.098Z,3.80
2023-03-18T11:08:00.035Z,4.35
2023-03-18T11:13:22.235Z,4.18
2023-03-18T11:18:46.357Z,4.40
2023-03-18T11:24:36.056Z,3.47
2023-03-18T11:30:05.886Z,4.07
2023-03-18T11:41:22.659Z,4.18
2023-03-18T11:46:53.538Z,4.13
2023-03-18T11:52:26.286Z,4.28
2023-03-18T11:57:50.120Z,5.00
2023-03-18T12:03:33.083Z,4.82
2023-03-18T12:09:08.567Z,4.55
2023-03-18T12:14:37.798Z,4.50
2023-03-18T12:20:33.695Z,5.22
2023-03-18T12:25:58.643Z,4.70
2023-03-18T12:31:25.317Z,4.72
2023-03-18T12:37:01.378Z,4.88
2023-03-18T12:42:35.930Z,4.45
2023-03-18T12:48:02.402Z,4.47
2023-03-18T12:53:33.526Z,5.68
2023-03-18T12:59:06.745Z,5.32
2023-03-18T13:04:32.018Z,6.80
2023-03-18T13:09:59.741Z,5.78
2023-03-18T13:15:46.713Z,6.07
2023-03-18T13:21:09.120Z,5.22
2023-03-18T13:27:08.757Z,6.00
2023-03-18T13:33:12.418Z,6.85
2023-03-18T13:39:01.313Z,4.57
2023-03-18T13:44:27.959Z,5.07
2023-03-18T13:49:49.496Z,5.20
2023-03-18T13:55:42.872Z,5.00
2023-03-18T14:01:28.648Z,6.25
2023-03-18T14:06:56.074Z,5.85
2023-03-18T14:12:35.053Z,6.55
2023-03-18T14:17:58.509Z,6.75
2023-03-18T14:23:39.534Z,6.38
2023-03-18T14:29:06.425Z,7.80
2023-03-18T14:34:32.107Z,5.35
2023-03-18T14:39:56.380Z,6.93
2023-03-18T14:45:36.164Z,7.53
2023-03-18T14:51:00.261Z,6.65
2023-03-18T14:56:24.506Z,6.75
2023-03-18T15:01:50.724Z,7.32
2023-03-18T15:07:13.914Z,6.25
2023-03-18T15:12:34.752Z,6.43
2023-03-18T15:17:55.413Z,6.25
2023-03-18T15:23:18.660Z,9.25
2023-03-18T15:28:39.383Z,6.85
2023-03-18T15:34:21.019Z,5.97
2023-03-18T15:39:41.781Z,10.50
2023-03-18T15:45:05.357Z,7.40
2023-03-18T15:50:31.849Z,7.97
2023-03-18T15:55:59.951Z,7.13
2023-03-18T16:01:21.194Z,8.07
2023-03-18T16:06:42.281Z,7.25
2023-03-18T16:12:19.552Z,6.55
2023-03-18T16:17:40.498Z,7.00
2023-03-18T16:23:01.297Z,5.68
2023-03-18T16:28:28.165Z,7.40
2023-03-18T16:33:52.797Z,8.80
2023-03-18T16:39:19.989Z,7.68
2023-03-18T16:44:40.664Z,7.32
2023-03-18T16:50:02.419Z,6.47
2023-03-18T16:55:24.002Z,7.60
2023-03-18T17:00:48.313Z,7.43
2023-03-18T17:06:09.878Z,6.88
2023-03-18T17:11:31.061Z,7.15
2023-03-18T17:16:52.213Z,6.72
2023-03-18T17:22:22.936Z,7.40
2023-03-18T17:27:47.313Z,8.25
2023-03-18T17:33:31.092Z,7.18
2023-03-18T17:38:56.649Z,7.32
2023-03-18T17:44:30.148Z,8.07
2023-03-18T17:49:51.465Z,10.75
2023-03-18T17:55:22.617Z,8.90
2023-03-18T18:00:44.366Z,8.40
2023-03-18T18:06:06.861Z,9.68
2023-03-18T18:11:33.576Z,14.40
2023-03-18T18:16:59.682Z,14.10
2023-03-18T18:22:26.577Z,19.17
2023-03-18T18:27:49.725Z,16.27
2023-03-18T18:33:10.549Z,15.15
2023-03-18T18:38:31.292Z,14.38
2023-03-18T18:43:53.608Z,14.82
2023-03-18T18:49:22.912Z,14.60
2023-03-18T18:54:43.788Z,14.93
2023-03-18T19:00:09.942Z,13.77
2023-03-18T19:05:30.781Z,14.57
2023-03-18T19:10:59.338Z,19.17
2023-03-18T19:16:32.387Z,15.77
2023-03-18T19:21:53.044Z,17.58
2023-03-18T19:27:40.004Z,17.27
2023-03-18T19:33:02.381Z,20.65
2023-03-18T19:38:51.883Z,24.65
2023-03-18T19:44:25.045Z,44.93
2023-03-18T19:49:46.228Z,21.40
2023-03-18T19:55:10.185Z,25.02
2023-03-18T20:00:31.252Z,16.42
2023-03-18T20:05:52.229Z,16.35
2023-03-18T20:11:16.359Z,16.35
2023-03-18T20:16:37.491Z,16.88
2023-03-18T20:21:58.332Z,16.77
2023-03-18T20:27:18.936Z,17.65
2023-03-18T20:32:39.596Z,20.38
2023-03-18T20:38:31.088Z,21.10
2023-03-18T20:43:51.939Z,19.80
2023-03-18T20:49:12.840Z,23.65
2023-03-18T20:54:34.427Z,22.90
2023-03-18T20:59:55.051Z,24.63
2023-03-18T21:05:16.437Z,25.38
2023-03-18T21:10:37.828Z,24.13
2023-03-18T21:16:00.256Z,23.85
2023-03-18T21:21:24.998Z,20.67
2023-03-18T21:26:54.349Z,19.83
2023-03-18T21:32:27.362Z,18.92
2023-03-18T21:37:48.420Z,17.42
2023-03-18T21:43:25.384Z,17.27
2023-03-18T21:48:46.865Z,15.75
2023-03-18T21:54:18.471Z,14.32
2023-03-18T21:59:39.510Z,13.68
2023-03-18T22:05:03.075Z,13.55
2023-03-18T22:10:24.186Z,16.17
2023-03-18T22:15:47.139Z,18.58
2023-03-18T22:21:19.978Z,19.80
2023-03-18T22:26:41.125Z,19.45
2023-03-18T22:32:01.889Z,15.88
2023-03-18T22:37:25.222Z,17.27
2023-03-18T22:42:48.372Z,17.52
2023-03-18T22:48:16.509Z,16.55
2023-03-18T22:53:41.212Z,15.43
2023-03-18T22:59:04.579Z,18.05
2023-03-18T23:04:25.724Z,17.35
2023-03-18T23:09:56.266Z,16.80
2023-03-18T23:15:20.841Z,16.73
2023-03-18T23:20:49.625Z,17.20
2023-03-18T23:26:10.294Z,16.63
2023-03-18T23:31:31.848Z,16.50
2023-03-18T23:36:52.923Z,14.40
2023-03-18T23:42:15.561Z,14.85
2023-03-18T23:47:37.044Z,16.20
2023-03-18T23:52:57.872Z,14.02
2023-03-18T23:58:18.669Z,14.50
